AGROMETEOROLOŠKI PORTAL

vinorodna pokrajina

Temelj dobrega kmetovanja

Pregled podatkov za lokacijo ŠKOCJAN ARSO, meteorološka postaja 136

Pregled senzorjev na lokaciji

ID Ime Zadnja
vrednost
Datum in čas
meritve
(lokalni čas)
Tip
senzorja
6045 Zračni tlak (hPa) 969 hPa 1.2.2023 14:00 ARSO
2842 Sončno sevanje (W/m2) 235 W/m2 1.2.2023 14:00 ARSO
2848 Padavine (mm) 0 mm 1.2.2023 14:00 ARSO
2856 Relativna zračna vlaga (2 m) (% RH) 58 % RH 1.2.2023 14:00 ARSO
2855 Temperatura (2 m) (°C) 9,5 °C 1.2.2023 14:00 ARSO
2860 Smer vetra (2 m) (°) 193 ° 1.2.2023 14:00 ARSO
2861 Hitrost vetra (2 m) (km/h) 8 km/h 1.2.2023 14:00 ARSO

Pregled podatkov zadnjih 24 ur

Zap.
št.
Datum in čas
(lokalni čas)
ŠKOCJAN ARSO
Zračni
tlak
Sončno
sevanje
Padavine Relativna
zračna
vlaga
(2
m)
Temperatura
(2
m)
Smer
vetra
(2
m)
Hitrost
vetra
(2
m)
1 1.2.2023 14:00 968,7 235 0 58 9,5 193 8
2 1.2.2023 13:30 969,4 371 0 59 10 139 2
3 1.2.2023 13:00 969,8 352 0 62 9,3 213 3
4 1.2.2023 12:30 970,2 270 0 68 7,7 272 1
5 1.2.2023 12:00 970,2 222 0 71 6,5 98 2
6 1.2.2023 11:30 970,5 202 0 73 5,2 163 2
7 1.2.2023 11:00 970,6 270 0 73 4,4 218 2
8 1.2.2023 10:30 970,5 404 0 79 2,5 146 2
9 1.2.2023 10:00 970,5 359 0 88 -0,2 118 3
10 1.2.2023 09:30 970,8 138 0 92 -2 111 2
11 1.2.2023 09:00 970,9 115 0 94 -3,2 141 2
12 1.2.2023 08:30 970,9 79 0 96 -4,3 109 2
13 1.2.2023 08:00 970,9 11 0 95 -4,9 109 3
14 1.2.2023 07:30 970,7 1 0 96 -5,2 114 2
15 1.2.2023 07:00 970,7 0 0 96 -5,4 95 2
16 1.2.2023 06:30 970,7 0 0 95 -5,8 106 1
17 1.2.2023 06:00 970,9 0 0 94 -6,2 183 1
18 1.2.2023 05:30 970,8 0 0 94 -5,8 110 2
19 1.2.2023 05:00 970,7 0 0 93 -5,8 151 1
20 1.2.2023 04:30 970,6 0 0 92 -5,6 64 0
21 1.2.2023 04:00 970,6 0 0 91 -5,2 121 1
22 1.2.2023 03:30 970,7 0 0 90 -5 130 1
23 1.2.2023 03:00 970,9 0 0 89 -4,7 128 1
24 1.2.2023 02:30 971 0 0 88 -4,6 147 1
25 1.2.2023 02:00 971,1 0 0 87 -4,2 134 1
26 1.2.2023 01:30 971,2 0 0 86 -4,2 175 3
27 1.2.2023 01:00 971,1 0 0 85 -4 116 2
28 1.2.2023 00:30 971,3 0 0 85 -3,9 101 2
29 1.2.2023 00:00 971,4 0 0 84 -3,9 121 3
30 31.1.2023 23:30 971,7 0 0 83 -4 126 3
31 31.1.2023 23:00 971,9 0 0 81 -3,9 194 2
32 31.1.2023 22:30 971,9 0 0 79 -3,4 88 1
33 31.1.2023 22:00 972 0 0 77 -3,2 69 1
34 31.1.2023 21:30 972 0 0 77 -2,9 305 0
35 31.1.2023 21:00 971,6 0 0 74 -2,6 357 1
36 31.1.2023 20:30 971,2 0 0 72 -2,1 147 0
37 31.1.2023 20:00 971,1 0 0 69 -1,7 115 1
38 31.1.2023 19:30 971,3 0 0 66 -0,9 172 2
39 31.1.2023 19:00 971,2 0 0 62 -0,1 131 1
40 31.1.2023 18:30 971,6 0 0 56 1,3 144 2
41 31.1.2023 18:00 971,7 0 0 48 2,9 239 1
42 31.1.2023 17:30 971,7 0 0 41 4,8 237 3
43 31.1.2023 17:00 971,7 10 0 36 6,7 262 4
44 31.1.2023 16:30 971,6 60 0 31 8,7 259 8
45 31.1.2023 16:00 971,5 165 0 29 10 253 6
46 31.1.2023 15:30 971,6 249 0 29 10 260 7
47 31.1.2023 15:00 971,7 321 0 32 10,3 253 9
48 31.1.2023 14:30 971,7 375 0 36 10,1 256 9